UPSVAC Airport Information Service

Warszawa-Okecie

ICAO: EPWA Country: Poland, EU
Latitude: 52.1657 Longitude: 20.9671
Latest Arrival : UPSJUMP (EDDK-EPWA) Latest Departure : UPSJUMP (EPWA-EFHK)


WX CaptureLIVE
Data provided by noaa.gov | Fetched at 17:02:11

METAR : EPWA 281630Z 14008KT CAVOK 27/17 Q1009 NOSIG

TAF : EPWA 281430Z 2815/2915 17010KT CAVOK PROB40 TEMPO 2815/2818 VRB15G25KT 3000 TSRA BKN030CB BECMG 2818/2821 VRB02KT TEMPO 2818/2903 VRB15G25KT 3000 TSRA SCT010 BKN025CB PROB40 TEMPO 2900/2906 BKN005 BECMG 2904/2907 28010KT


Runway Data for EPWA
Data provided by openaviationdata.com

Runway ID Mag Var Hdg Length Elevation Surface ILS Freq ILS Id ILS Slope
11 5 109° 9190 ft 361 ft Asphalt 109.9 WAS 3
15 5 146° 12088 ft 361 ft Asphalt -- -- --
29 5 289° 9190 ft 361 ft Asphalt -- -- --
33 5 326° 12088 ft 361 ft Asphalt 110.3 WA 3

Warszawa-Okecie, Poland, EU
Use only for reference purposes



Not for navigational purposes.